North Spring Valley, Nevada Weather observations

Data are for 10 minute period ending at time listed.
 Day   Time   Solar   Ave.   Ave.  Ave.  Vector  Max.   Baro.   Total    
  of    of     Rad.   Air    Rel.  Wind   Wind   Wind  Press.  Precip.   
Year   Day            Temp.  Hum.  Speed  Dir.   Gust                    
2014   (PST)  Kw/m2    F      %     mph   deg.    mph    mb.     in.     
-------------------------------------------------------------------------
 329    6:20   0.00   21.3    62    2.7    40     7.7   836.3    0.00 
 329    6:30   0.00   21.2    61    3.7   324     6.6   836.5    0.00 
 329    6:40   0.01   23.3    55    3.2    52     6.1   836.7    0.00 
 329    6:50   0.01   24.2    53    3.4   257     8.7   836.7    0.00 
 329    7:00   0.05   25.6    51    4.0    25    11.0   836.6    0.00 
 329    7:10   0.07   25.3    54    4.6    89     8.9   836.7    0.00 
 329    7:20   0.10   23.5    59    3.6   128     6.7   836.8    0.00 
 329    7:30   0.13   25.0    55    2.5   206     4.8   836.8    0.00 
 329    7:40   0.16   27.2    51    2.8   194     4.7   836.6    0.00 
 329    7:50   0.19   28.1    48    2.8   268     6.6   836.6    0.00 
 329    8:00   0.21   30.1    44    5.3   141     9.1   836.3    0.00 
 329    8:10   0.23   32.1    40    6.9   140    12.3   836.4    0.00 
 329    8:20   0.27   31.9    42    3.8   183     9.1   836.5    0.00 
 329    8:30   0.29   33.7    36    3.6   198     5.5   836.6    0.00 
 329    8:40   0.30   34.8    34    3.9   155     6.6   836.6    0.00 
 329    8:50   0.32   34.3    36    3.6   129     5.6   836.6    0.00 
 329    9:00   0.35   35.9    34    2.3   131     5.3   836.6    0.00 
 329    9:10   0.36   36.6    35    3.9   136     6.4   836.6    0.00 
 329    9:20   0.41   36.9    36    5.1   139     8.2   836.7    0.00 
 329    9:30   0.36   38.5    34    3.6   212     6.7   836.7    0.00 
 329    9:40   0.40   40.9    32    2.0   210     4.8   836.7    0.00 
 329    9:50   0.43   42.5    30    3.2    38     7.6   836.8    0.00 
 329   10:00   0.48   45.0    29    1.9   167     5.2   836.9    0.00 
 329   10:10   0.51   47.0    29    4.2   129     9.9   836.8    0.00 
 329   10:20   0.54   48.2    30    5.1   146     8.7   836.9    0.00 
 329   10:30   0.51   49.0    29    6.7   156    10.1   836.8    0.00 
 329   10:40   0.50   49.9    29    4.3   186     7.8   836.7    0.00 
 329   10:50   0.52   51.2    28    3.4   177     6.7   836.6    0.00 
 329   11:00   0.58   52.1    28    4.4   194     6.4   836.5    0.00 
 329   11:10   0.55   52.6    29    4.0   199    10.3   836.2    0.00 
 329   11:20   0.56   53.6    28    5.1   147    12.4   836.2    0.00 
 329   11:30   0.51   54.4    29    9.1    77    18.9   835.7    0.00 
 329   11:40   0.39   55.2    28   11.0   104    29.4   835.4    0.00 
 329   11:50   0.17   52.2    29   11.5   175    19.4   835.3    0.00 
 329   12:00   0.30   51.6    30   11.8   189    16.8   835.2    0.00 
 329   12:10   0.55   53.7    28   11.9   196    16.7   835.3    0.00 
 329   12:20   0.53   55.1    27   10.2   189    14.4   835.4    0.00 
 329   12:30   0.31   54.1    28    8.2   197    14.0   835.4    0.00 
 329   12:40   0.09   52.6    29    6.6   175     9.6   835.4    0.00 
 329   12:50   0.06   51.5    30    5.1   178     7.7   835.4    0.00 
 329   13:00   0.08   50.9    32    6.8   210    11.2   835.3    0.00 
 329   13:10   0.36   53.5    30    6.3   203    10.7   835.4    0.00 
 329   13:20   0.49   56.9    27    2.7   163     6.5   835.3    0.00 
 329   13:30   0.47   57.9    26    2.7   284     6.5   835.3    0.00 
 329   13:40   0.45   57.4    27    4.2    37    11.2   835.3    0.00 
 329   13:50   0.41   56.4    29    7.9   334    16.1   835.1    0.00 
 329   14:00   0.38   56.7    29    8.3   251    19.5   835.1    0.00 
 329   14:10   0.35   56.4    30    7.8   306    15.6   835.4    0.00 
 329   14:20   0.33   55.8    31    9.9   293    21.2   835.6    0.00 
 329   14:30   0.30   56.0    30   10.4   300    18.5   835.6    0.00 
 329   14:40   0.26   55.8    30    7.9   321    11.3   835.6    0.00 
 329   14:50   0.24   55.7    31    9.5   314    18.2   835.4    0.00 
 329   15:00   0.20   54.7    32   12.9   335    21.0   835.4    0.00 
 329   15:10   0.13   53.9    33   10.4     3    17.0   835.5    0.00 
 329   15:20   0.04   52.9    34    9.0   356    23.9   835.4    0.00 
 329   15:30   0.02   53.3    34   11.3   326    19.6   835.2    0.00 
 329   15:40   0.02   53.2    34   11.2   318    18.0   835.2    0.00 
 329   15:50   0.02   53.4    34   12.3   306    21.0   835.5    0.00 
 329   16:00   0.01   52.6    36   11.4   315    17.1   835.5    0.00 
 329   16:10   0.01   52.5    36   10.7   358    19.1   835.3    0.00 
 329   16:20   0.01   51.9    37    9.4   353    14.3   835.5    0.00 
 329   16:30   0.00   52.0    38    9.7   354    17.1   835.5    0.00 
 329   16:40   0.00   52.2    38   10.0     6    17.2   835.5    0.00 
 329   16:50   0.00   51.9    38   10.1   342    19.1   835.5    0.00 
 329   17:00   0.00   52.4    38    9.3   326    28.2   835.7    0.00 
 329   17:10   0.00   51.9    39   10.8   326    19.5   835.9    0.00 
 329   17:20   0.00   51.4    40    6.5   328    10.6   836.1    0.00 
 329   17:30   0.00   49.5    43    7.2   305    12.6   836.1    0.00 
 329   17:40   0.00   51.2    41   10.0   310    19.7   836.1    0.00 
 329   17:50   0.00   51.3    40    4.9   308    13.7   836.1    0.00 
 329   18:00   0.00   50.4    42    6.3   300    11.2   836.0    0.00 
 329   18:10   0.00   50.5    41    4.8   311     8.9   835.9    0.00 
 329   18:20   0.00   48.8    44    6.1   356    13.5   835.9    0.00 
 329   18:30   0.00   50.8    41    8.4   341    14.1   835.9    0.00 
 329   18:40   0.00   49.7    42    8.7   229    13.8   835.9    0.00 
 329   18:50   0.00   46.7    46    8.3   180    12.7   836.2    0.00 
 329   19:00   0.00   45.5    49    5.5   158     9.6   836.2    0.00 
 329   19:10   0.00   43.7    52    4.7   169     6.6   836.4    0.00 
 329   19:20   0.00   42.7    53    4.8   196     6.5   836.4    0.00 
 329   19:30   0.00   43.0    54    7.0   189    11.0   836.3    0.00 
 329   19:40   0.00   43.7    53    5.7   219    10.8   836.4    0.00 
 329   19:50   0.00   44.7    51    4.8   177     9.4   836.4    0.00 
 329   20:00   0.00   43.5    52    5.4   318    10.7   836.5    0.00 
 329   20:10   0.00   44.4    51    3.8   296     7.7   836.4    0.00 
 329   20:20   0.00   44.3    51    4.7   313     7.9   836.4    0.00 
 329   20:30   0.00   43.2    54    4.4   324     9.3   836.5    0.00 
 329   20:40   0.00   42.3    54    4.6   174     8.6   836.5    0.00 
 329   20:50   0.00   40.7    56    6.1   189    10.4   836.4    0.00 
 329   21:00   0.00   38.6    60    5.3   179    10.0   836.4    0.00 
 329   21:10   0.00   38.6    60    6.7   183    10.9   836.3    0.00 
 329   21:20   0.00   39.3    60    5.0   195     8.5   836.4    0.00 
 329   21:30   0.00   39.9    60    4.9   193     8.6   836.4    0.00 
 329   21:40   0.00   43.1    54    5.2   187     9.6   836.4    0.00 
 329   21:50   0.00   44.8    51    4.6   204     7.0   836.3    0.00 
 329   22:00   0.00   44.0    52    5.3   179     9.3   836.3    0.00 
 329   22:10   0.00   45.0    49    5.4   167    10.1   836.1    0.00 
 329   22:20   0.00   41.6    55    5.8   171     8.7   836.3    0.00 
 329   22:30   0.00   43.6    51    5.1   147    11.5   836.4    0.00 
 329   22:40   0.00   43.0    53    7.9   173     9.9   836.5    0.00 
 329   22:50   0.00   40.2    58    4.8   206     9.6   836.5    0.00 
 329   23:00   0.00   39.3    60    4.8   182     9.8   836.5    0.00 
 329   23:10   0.00   40.9    58    5.9   106    10.9   836.3    0.00 
 329   23:20   0.00   42.9    54    6.1   212    11.5   836.3    0.00 
 329   23:30   0.00   41.8    54    3.6   151     7.1   836.4    0.00 
 329   23:40   0.00   39.9    59    2.6   223     6.7   836.3    0.00 
 329   23:50   0.00   39.0    60    2.6   230     6.4   836.4    0.00 
 330    0:00   0.00   37.5    63    2.2   253     5.1   836.3    0.00 
 330    0:10   0.00   35.3    68    4.7   230     8.4   836.3    0.00 
 330    0:20   0.00   38.0    64    5.1   175    10.2   836.3    0.00 
 330    0:30   0.00   39.8    59    4.0   177     7.1   836.1    0.00 
 330    0:40   0.00   37.7    63    3.5    96     5.3   836.0    0.00 
 330    0:50   0.00   37.9    62    3.5    12     7.1   836.0    0.00 
 330    1:00   0.00   36.2    65    4.6   281     9.6   836.0    0.00 
 330    1:10   0.00   34.0    70    3.1   289     6.7   836.1    0.00 
 330    1:20   0.00   34.5    69    3.3   329     7.4   836.1    0.00 
 330    1:30   0.00   33.8    72    3.7    73     9.7   836.2    0.00 
 330    1:40   0.00   35.8    67    3.6    38     6.9   836.2    0.00 
 330    1:50   0.00   34.5    69    3.0   337     9.1   836.3    0.00 
 330    2:00   0.00   33.4    70    1.7    29     5.1   836.2    0.00 
 330    2:10   0.00   31.3    75    5.0   311     7.6   836.3    0.00 
 330    2:20   0.00   32.2    73    3.9   330     9.9   836.3    0.00 
 330    2:30   0.00   32.8    74    3.3   295     8.7   836.2    0.00 
 330    2:40   0.00   32.0    74    3.8   249     6.6   836.0    0.00 
 330    2:50   0.00   33.3    74    2.5   356     4.5   836.0    0.00 
 330    3:00   0.00   33.3    69    2.2    30     6.0   836.2    0.00 
 330    3:10   0.00   31.1    76    3.0   165     7.9   836.2    0.00 
 330    3:20   0.00   33.4    71    2.0   316     4.2   836.3    0.00 
 330    3:30   0.00   31.0    75    4.8   325    12.0   836.3    0.00 
 330    3:40   0.00   35.8    69    4.3   359    11.3   836.3    0.00 
 330    3:50   0.00   37.2    65    4.8   332    10.7   836.2    0.00 
 330    4:00   0.00   34.9    66    2.8    88     6.0   836.4    0.00 
 330    4:10   0.00   32.4    73    4.1   202     6.8   836.5    0.00 
 330    4:20   0.00   31.0    76    3.9   253     8.2   836.6    0.00 
 330    4:30   0.00   31.9    75    2.9   210     7.4   836.6    0.00 
 330    4:40   0.00   28.7    77    5.0   144     9.3   836.7    0.00 
 330    4:50   0.00   27.3    82    4.1   182     6.9   836.6    0.00 
 330    5:00   0.00   27.7    83    2.8   245     5.0   836.6    0.00 
 330    5:10   0.00   28.0    81    2.9    91     7.9   836.6    0.00 
 330    5:20   0.00   30.5    79    2.9   283     6.6   836.7    0.00 
 330    5:30   0.00   31.6    74    3.1   272     6.1   836.8    0.00 
 330    5:40   0.00   29.2    78    2.6   226     5.7   836.9    0.00 
 330    5:50   0.00   28.7    80    3.7   234     4.7   837.1    0.00 
 330    6:00   0.00   26.5    81    2.4   210     5.8   837.1    0.00 
 330    6:10   0.00   26.4    83    2.9    34     7.1   837.3    0.00 

Return to North Spring Valley graphs page.


Western Regional Climate Center,wrcc@dri.edu